sensor_id;sensor_type;location;lat;lon;timestamp;P1;durP1;ratioP1;P2;durP2;ratioP2
27539;SDS011;15906;52.046;4.724;2023-02-28T00:01:08;5.87;;;2.67;;
27539;SDS011;15906;52.046;4.724;2023-02-28T00:03:34;5.27;;;2.30;;
27539;SDS011;15906;52.046;4.724;2023-02-28T00:06:01;8.17;;;2.23;;
27539;SDS011;15906;52.046;4.724;2023-02-28T00:08:28;6.93;;;2.47;;
27539;SDS011;15906;52.046;4.724;2023-02-28T00:10:54;5.20;;;1.87;;
27539;SDS011;15906;52.046;4.724;2023-02-28T00:13:19;7.17;;;2.30;;
27539;SDS011;15906;52.046;4.724;2023-02-28T00:15:45;6.50;;;2.40;;
27539;SDS011;15906;52.046;4.724;2023-02-28T00:18:10;6.07;;;2.60;;
27539;SDS011;15906;52.046;4.724;2023-02-28T00:20:36;6.90;;;2.10;;
27539;SDS011;15906;52.046;4.724;2023-02-28T00:23:02;3.93;;;2.00;;
27539;SDS011;15906;52.046;4.724;2023-02-28T00:25:28;2.57;;;1.93;;
27539;SDS011;15906;52.046;4.724;2023-02-28T00:27:53;4.17;;;1.90;;
27539;SDS011;15906;52.046;4.724;2023-02-28T00:30:20;3.93;;;2.27;;
27539;SDS011;15906;52.046;4.724;2023-02-28T00:32:47;8.77;;;2.23;;
27539;SDS011;15906;52.046;4.724;2023-02-28T00:35:13;2.83;;;1.80;;
27539;SDS011;15906;52.046;4.724;2023-02-28T00:37:39;4.77;;;2.07;;
27539;SDS011;15906;52.046;4.724;2023-02-28T00:40:05;5.63;;;2.07;;
27539;SDS011;15906;52.046;4.724;2023-02-28T00:42:32;2.80;;;1.70;;
27539;SDS011;15906;52.046;4.724;2023-02-28T00:44:58;4.83;;;2.03;;
27539;SDS011;15906;52.046;4.724;2023-02-28T00:47:24;5.80;;;2.47;;
27539;SDS011;15906;52.046;4.724;2023-02-28T00:49:50;5.53;;;2.07;;
27539;SDS011;15906;52.046;4.724;2023-02-28T00:52:15;7.07;;;1.90;;
27539;SDS011;15906;52.046;4.724;2023-02-28T00:54:41;5.43;;;2.43;;
27539;SDS011;15906;52.046;4.724;2023-02-28T00:57:07;4.20;;;2.07;;
27539;SDS011;15906;52.046;4.724;2023-02-28T00:59:32;5.40;;;2.10;;
27539;SDS011;15906;52.046;4.724;2023-02-28T01:01:58;4.60;;;1.97;;
27539;SDS011;15906;52.046;4.724;2023-02-28T01:04:23;4.03;;;2.20;;
27539;SDS011;15906;52.046;4.724;2023-02-28T01:06:49;5.63;;;1.80;;
27539;SDS011;15906;52.046;4.724;2023-02-28T01:09:14;6.80;;;2.60;;
27539;SDS011;15906;52.046;4.724;2023-02-28T01:11:40;9.77;;;2.20;;
27539;SDS011;15906;52.046;4.724;2023-02-28T01:14:09;5.50;;;2.23;;
27539;SDS011;15906;52.046;4.724;2023-02-28T01:16:38;4.53;;;2.27;;
27539;SDS011;15906;52.046;4.724;2023-02-28T01:19:03;7.17;;;2.10;;
27539;SDS011;15906;52.046;4.724;2023-02-28T01:21:29;7.20;;;2.20;;
27539;SDS011;15906;52.046;4.724;2023-02-28T01:23:56;5.27;;;2.07;;
27539;SDS011;15906;52.046;4.724;2023-02-28T01:26:22;3.73;;;2.20;;
27539;SDS011;15906;52.046;4.724;2023-02-28T01:28:49;6.83;;;2.00;;
27539;SDS011;15906;52.046;4.724;2023-02-28T01:31:15;6.70;;;2.20;;
27539;SDS011;15906;52.046;4.724;2023-02-28T01:33:42;6.33;;;2.20;;
27539;SDS011;15906;52.046;4.724;2023-02-28T01:38:38;6.37;;;2.17;;
27539;SDS011;15906;52.046;4.724;2023-02-28T01:41:04;5.37;;;2.17;;
27539;SDS011;15906;52.046;4.724;2023-02-28T01:46:09;7.23;;;2.10;;
27539;SDS011;15906;52.046;4.724;2023-02-28T01:48:40;9.40;;;2.63;;
27539;SDS011;15906;52.046;4.724;2023-02-28T01:51:13;4.80;;;2.03;;
27539;SDS011;15906;52.046;4.724;2023-02-28T01:53:44;5.40;;;2.40;;
27539;SDS011;15906;52.046;4.724;2023-02-28T01:56:15;5.80;;;1.90;;
27539;SDS011;15906;52.046;4.724;2023-02-28T01:58:46;3.10;;;1.93;;
27539;SDS011;15906;52.046;4.724;2023-02-28T02:01:13;3.23;;;2.27;;
27539;SDS011;15906;52.046;4.724;2023-02-28T02:03:56;3.43;;;2.37;;
27539;SDS011;15906;52.046;4.724;2023-02-28T02:06:40;5.27;;;2.70;;
27539;SDS011;15906;52.046;4.724;2023-02-28T02:09:09;4.30;;;2.30;;
27539;SDS011;15906;52.046;4.724;2023-02-28T02:11:35;4.27;;;2.37;;
27539;SDS011;15906;52.046;4.724;2023-02-28T02:19:32;3.80;;;2.27;;
27539;SDS011;15906;52.046;4.724;2023-02-28T02:27:53;7.57;;;2.70;;
27539;SDS011;15906;52.046;4.724;2023-02-28T02:30:44;4.43;;;2.80;;
27539;SDS011;15906;52.046;4.724;2023-02-28T02:36:52;8.30;;;2.50;;
27539;SDS011;15906;52.046;4.724;2023-02-28T02:41:56;8.47;;;2.80;;
27539;SDS011;15906;52.046;4.724;2023-02-28T02:44:36;4.10;;;2.93;;
27539;SDS011;15906;52.046;4.724;2023-02-28T02:47:10;4.83;;;2.63;;
27539;SDS011;15906;52.046;4.724;2023-02-28T02:49:49;4.80;;;2.30;;
27539;SDS011;15906;52.046;4.724;2023-02-28T02:52:20;7.13;;;2.80;;
27539;SDS011;15906;52.046;4.724;2023-02-28T02:54:50;6.77;;;2.30;;
27539;SDS011;15906;52.046;4.724;2023-02-28T02:57:34;4.67;;;2.87;;
27539;SDS011;15906;52.046;4.724;2023-02-28T03:00:05;4.67;;;2.70;;
27539;SDS011;15906;52.046;4.724;2023-02-28T03:02:33;5.17;;;2.63;;
27539;SDS011;15906;52.046;4.724;2023-02-28T03:05:07;6.33;;;2.90;;
27539;SDS011;15906;52.046;4.724;2023-02-28T03:07:39;4.13;;;2.50;;
27539;SDS011;15906;52.046;4.724;2023-02-28T03:10:25;5.10;;;3.10;;
27539;SDS011;15906;52.046;4.724;2023-02-28T03:18:54;8.50;;;2.60;;
27539;SDS011;15906;52.046;4.724;2023-02-28T03:21:33;6.83;;;3.10;;
27539;SDS011;15906;52.046;4.724;2023-02-28T03:24:10;8.70;;;2.90;;
27539;SDS011;15906;52.046;4.724;2023-02-28T03:26:41;6.17;;;2.70;;
27539;SDS011;15906;52.046;4.724;2023-02-28T03:31:48;5.37;;;3.33;;
27539;SDS011;15906;52.046;4.724;2023-02-28T03:34:24;4.87;;;2.77;;
27539;SDS011;15906;52.046;4.724;2023-02-28T03:37:00;4.83;;;3.27;;
27539;SDS011;15906;52.046;4.724;2023-02-28T03:39:37;5.17;;;2.90;;
27539;SDS011;15906;52.046;4.724;2023-02-28T03:42:09;6.63;;;2.93;;
27539;SDS011;15906;52.046;4.724;2023-02-28T03:44:42;6.00;;;3.03;;
27539;SDS011;15906;52.046;4.724;2023-02-28T03:47:24;6.83;;;3.37;;
27539;SDS011;15906;52.046;4.724;2023-02-28T03:52:31;7.00;;;3.23;;
27539;SDS011;15906;52.046;4.724;2023-02-28T03:55:06;5.80;;;2.70;;
27539;SDS011;15906;52.046;4.724;2023-02-28T04:00:37;6.83;;;3.37;;
27539;SDS011;15906;52.046;4.724;2023-02-28T04:03:06;5.40;;;3.13;;
27539;SDS011;15906;52.046;4.724;2023-02-28T04:05:31;9.00;;;3.30;;
27539;SDS011;15906;52.046;4.724;2023-02-28T04:08:05;6.63;;;3.50;;
27539;SDS011;15906;52.046;4.724;2023-02-28T04:10:31;9.07;;;3.80;;
27539;SDS011;15906;52.046;4.724;2023-02-28T04:12:57;5.13;;;3.73;;
27539;SDS011;15906;52.046;4.724;2023-02-28T04:15:23;8.10;;;3.77;;
27539;SDS011;15906;52.046;4.724;2023-02-28T04:17:49;6.40;;;3.30;;
27539;SDS011;15906;52.046;4.724;2023-02-28T04:20:15;7.00;;;4.60;;
27539;SDS011;15906;52.046;4.724;2023-02-28T04:22:41;6.63;;;3.63;;
27539;SDS011;15906;52.046;4.724;2023-02-28T04:25:06;12.17;;;4.27;;
27539;SDS011;15906;52.046;4.724;2023-02-28T04:27:32;6.63;;;3.77;;
27539;SDS011;15906;52.046;4.724;2023-02-28T04:29:58;9.70;;;4.00;;
27539;SDS011;15906;52.046;4.724;2023-02-28T04:32:24;10.13;;;4.47;;
27539;SDS011;15906;52.046;4.724;2023-02-28T04:34:49;9.63;;;5.37;;
27539;SDS011;15906;52.046;4.724;2023-02-28T04:37:15;13.77;;;6.73;;
27539;SDS011;15906;52.046;4.724;2023-02-28T04:39:41;11.73;;;5.73;;
27539;SDS011;15906;52.046;4.724;2023-02-28T04:42:07;7.30;;;4.57;;
27539;SDS011;15906;52.046;4.724;2023-02-28T04:44:32;10.83;;;4.73;;
27539;SDS011;15906;52.046;4.724;2023-02-28T04:46:58;7.97;;;4.37;;
27539;SDS011;15906;52.046;4.724;2023-02-28T04:49:23;7.87;;;4.80;;
27539;SDS011;15906;52.046;4.724;2023-02-28T04:51:49;7.33;;;4.77;;
27539;SDS011;15906;52.046;4.724;2023-02-28T04:54:15;8.20;;;4.83;;
27539;SDS011;15906;52.046;4.724;2023-02-28T04:56:41;8.07;;;4.67;;
27539;SDS011;15906;52.046;4.724;2023-02-28T04:59:07;7.77;;;5.17;;
27539;SDS011;15906;52.046;4.724;2023-02-28T05:01:33;8.70;;;5.33;;
27539;SDS011;15906;52.046;4.724;2023-02-28T05:04:00;7.80;;;4.90;;
27539;SDS011;15906;52.046;4.724;2023-02-28T05:06:28;10.07;;;5.37;;
27539;SDS011;15906;52.046;4.724;2023-02-28T05:08:56;7.70;;;4.97;;
27539;SDS011;15906;52.046;4.724;2023-02-28T05:11:23;8.40;;;4.97;;
27539;SDS011;15906;52.046;4.724;2023-02-28T05:14:00;9.63;;;5.40;;
27539;SDS011;15906;52.046;4.724;2023-02-28T05:16:26;6.40;;;5.50;;
27539;SDS011;15906;52.046;4.724;2023-02-28T05:18:52;7.73;;;4.70;;
27539;SDS011;15906;52.046;4.724;2023-02-28T05:23:52;9.33;;;5.50;;
27539;SDS011;15906;52.046;4.724;2023-02-28T05:26:18;9.17;;;5.30;;
27539;SDS011;15906;52.046;4.724;2023-02-28T05:28:44;12.50;;;6.03;;
27539;SDS011;15906;52.046;4.724;2023-02-28T05:31:10;11.07;;;6.07;;
27539;SDS011;15906;52.046;4.724;2023-02-28T05:33:36;10.27;;;5.90;;
27539;SDS011;15906;52.046;4.724;2023-02-28T05:36:02;9.93;;;5.97;;
27539;SDS011;15906;52.046;4.724;2023-02-28T05:38:28;9.90;;;5.90;;
27539;SDS011;15906;52.046;4.724;2023-02-28T05:40:54;9.13;;;6.33;;
27539;SDS011;15906;52.046;4.724;2023-02-28T05:43:19;11.37;;;5.90;;
27539;SDS011;15906;52.046;4.724;2023-02-28T05:45:45;10.47;;;5.97;;
27539;SDS011;15906;52.046;4.724;2023-02-28T05:48:10;11.80;;;6.53;;
27539;SDS011;15906;52.046;4.724;2023-02-28T05:50:36;7.33;;;6.37;;
27539;SDS011;15906;52.046;4.724;2023-02-28T05:53:02;12.83;;;5.97;;
27539;SDS011;15906;52.046;4.724;2023-02-28T05:55:28;9.37;;;6.40;;
27539;SDS011;15906;52.046;4.724;2023-02-28T05:57:53;9.13;;;5.87;;
27539;SDS011;15906;52.046;4.724;2023-02-28T06:00:19;9.33;;;5.60;;
27539;SDS011;15906;52.046;4.724;2023-02-28T06:02:45;8.57;;;5.43;;
27539;SDS011;15906;52.046;4.724;2023-02-28T06:05:15;6.80;;;5.27;;
27539;SDS011;15906;52.046;4.724;2023-02-28T06:07:42;10.77;;;5.43;;
27539;SDS011;15906;52.046;4.724;2023-02-28T06:10:09;7.90;;;4.93;;
27539;SDS011;15906;52.046;4.724;2023-02-28T06:12:36;7.80;;;4.70;;
27539;SDS011;15906;52.046;4.724;2023-02-28T06:15:02;8.07;;;4.37;;
27539;SDS011;15906;52.046;4.724;2023-02-28T06:17:28;7.57;;;4.10;;
27539;SDS011;15906;52.046;4.724;2023-02-28T06:19:54;6.37;;;3.97;;
27539;SDS011;15906;52.046;4.724;2023-02-28T06:22:19;9.80;;;3.93;;
27539;SDS011;15906;52.046;4.724;2023-02-28T06:24:45;5.40;;;3.97;;
27539;SDS011;15906;52.046;4.724;2023-02-28T06:27:10;5.83;;;3.90;;
27539;SDS011;15906;52.046;4.724;2023-02-28T06:29:36;5.80;;;3.77;;
27539;SDS011;15906;52.046;4.724;2023-02-28T06:32:04;6.27;;;4.00;;
27539;SDS011;15906;52.046;4.724;2023-02-28T06:34:30;9.93;;;4.03;;
27539;SDS011;15906;52.046;4.724;2023-02-28T06:36:58;8.23;;;3.90;;
27539;SDS011;15906;52.046;4.724;2023-02-28T06:39:30;5.87;;;3.57;;
27539;SDS011;15906;52.046;4.724;2023-02-28T06:41:56;6.27;;;3.57;;
27539;SDS011;15906;52.046;4.724;2023-02-28T06:44:22;9.93;;;3.90;;
27539;SDS011;15906;52.046;4.724;2023-02-28T06:46:48;6.17;;;3.70;;
27539;SDS011;15906;52.046;4.724;2023-02-28T06:49:14;6.67;;;4.10;;
27539;SDS011;15906;52.046;4.724;2023-02-28T06:51:40;8.60;;;4.33;;
27539;SDS011;15906;52.046;4.724;2023-02-28T06:54:09;6.93;;;4.13;;
27539;SDS011;15906;52.046;4.724;2023-02-28T06:56:36;6.67;;;3.60;;
27539;SDS011;15906;52.046;4.724;2023-02-28T06:59:01;5.97;;;4.13;;
27539;SDS011;15906;52.046;4.724;2023-02-28T07:01:28;5.73;;;4.17;;
27539;SDS011;15906;52.046;4.724;2023-02-28T07:03:54;6.87;;;4.07;;
27539;SDS011;15906;52.046;4.724;2023-02-28T07:06:20;8.70;;;4.77;;
27539;SDS011;15906;52.046;4.724;2023-02-28T07:08:50;6.27;;;4.37;;
27539;SDS011;15906;52.046;4.724;2023-02-28T07:11:17;5.73;;;4.17;;
27539;SDS011;15906;52.046;4.724;2023-02-28T07:13:43;10.70;;;4.97;;
27539;SDS011;15906;52.046;4.724;2023-02-28T07:16:10;7.03;;;4.50;;
27539;SDS011;15906;52.046;4.724;2023-02-28T07:18:36;7.37;;;5.00;;
27539;SDS011;15906;52.046;4.724;2023-02-28T07:21:03;6.03;;;4.37;;
27539;SDS011;15906;52.046;4.724;2023-02-28T07:23:29;6.00;;;4.17;;
27539;SDS011;15906;52.046;4.724;2023-02-28T07:25:55;9.00;;;5.07;;
27539;SDS011;15906;52.046;4.724;2023-02-28T07:28:20;6.77;;;5.03;;
27539;SDS011;15906;52.046;4.724;2023-02-28T07:30:46;6.10;;;5.00;;
27539;SDS011;15906;52.046;4.724;2023-02-28T07:33:13;8.93;;;5.80;;
27539;SDS011;15906;52.046;4.724;2023-02-28T07:35:38;16.17;;;10.07;;
27539;SDS011;15906;52.046;4.724;2023-02-28T07:38:04;16.17;;;10.90;;
27539;SDS011;15906;52.046;4.724;2023-02-28T07:40:30;10.87;;;7.10;;
27539;SDS011;15906;52.046;4.724;2023-02-28T07:42:56;11.00;;;7.20;;
27539;SDS011;15906;52.046;4.724;2023-02-28T07:45:23;9.53;;;7.60;;
27539;SDS011;15906;52.046;4.724;2023-02-28T07:47:49;9.73;;;6.80;;
27539;SDS011;15906;52.046;4.724;2023-02-28T07:50:15;10.50;;;5.93;;
27539;SDS011;15906;52.046;4.724;2023-02-28T07:52:41;10.00;;;5.70;;
27539;SDS011;15906;52.046;4.724;2023-02-28T07:55:07;7.53;;;4.37;;
27539;SDS011;15906;52.046;4.724;2023-02-28T07:57:34;7.10;;;4.50;;
27539;SDS011;15906;52.046;4.724;2023-02-28T08:00:00;7.20;;;4.70;;
27539;SDS011;15906;52.046;4.724;2023-02-28T08:02:26;7.50;;;5.03;;
27539;SDS011;15906;52.046;4.724;2023-02-28T08:04:51;8.30;;;5.73;;
27539;SDS011;15906;52.046;4.724;2023-02-28T08:07:17;5.70;;;4.80;;
27539;SDS011;15906;52.046;4.724;2023-02-28T08:09:43;7.13;;;4.50;;
27539;SDS011;15906;52.046;4.724;2023-02-28T08:12:10;6.93;;;5.27;;
27539;SDS011;15906;52.046;4.724;2023-02-28T08:14:36;6.40;;;5.00;;
27539;SDS011;15906;52.046;4.724;2023-02-28T08:17:02;10.37;;;5.70;;
27539;SDS011;15906;52.046;4.724;2023-02-28T08:19:28;8.90;;;5.77;;
27539;SDS011;15906;52.046;4.724;2023-02-28T08:21:54;10.10;;;5.33;;
27539;SDS011;15906;52.046;4.724;2023-02-28T08:24:20;8.37;;;5.30;;
27539;SDS011;15906;52.046;4.724;2023-02-28T08:26:46;8.43;;;5.17;;
27539;SDS011;15906;52.046;4.724;2023-02-28T08:29:11;8.93;;;5.30;;
27539;SDS011;15906;52.046;4.724;2023-02-28T08:31:37;7.00;;;4.80;;
27539;SDS011;15906;52.046;4.724;2023-02-28T08:34:06;8.17;;;5.00;;
27539;SDS011;15906;52.046;4.724;2023-02-28T08:36:33;9.10;;;5.00;;
27539;SDS011;15906;52.046;4.724;2023-02-28T08:38:59;6.90;;;4.80;;
27539;SDS011;15906;52.046;4.724;2023-02-28T08:41:25;8.93;;;4.80;;
27539;SDS011;15906;52.046;4.724;2023-02-28T08:43:51;8.40;;;5.33;;
27539;SDS011;15906;52.046;4.724;2023-02-28T08:46:18;8.23;;;5.07;;
27539;SDS011;15906;52.046;4.724;2023-02-28T08:48:44;9.27;;;6.03;;
27539;SDS011;15906;52.046;4.724;2023-02-28T08:51:11;10.53;;;6.43;;
27539;SDS011;15906;52.046;4.724;2023-02-28T08:53:43;12.07;;;5.77;;
27539;SDS011;15906;52.046;4.724;2023-02-28T08:56:10;8.33;;;5.73;;
27539;SDS011;15906;52.046;4.724;2023-02-28T08:58:38;9.87;;;5.70;;
27539;SDS011;15906;52.046;4.724;2023-02-28T09:01:38;8.87;;;5.90;;
27539;SDS011;15906;52.046;4.724;2023-02-28T09:03:57;12.07;;;6.30;;
27539;SDS011;15906;52.046;4.724;2023-02-28T09:06:24;13.87;;;7.43;;
27539;SDS011;15906;52.046;4.724;2023-02-28T09:08:51;14.13;;;7.63;;
27539;SDS011;15906;52.046;4.724;2023-02-28T09:11:17;9.37;;;6.33;;
27539;SDS011;15906;52.046;4.724;2023-02-28T09:13:44;13.40;;;6.83;;
27539;SDS011;15906;52.046;4.724;2023-02-28T09:16:11;11.47;;;7.03;;
27539;SDS011;15906;52.046;4.724;2023-02-28T09:18:38;10.33;;;7.40;;
27539;SDS011;15906;52.046;4.724;2023-02-28T09:21:05;9.37;;;7.07;;
27539;SDS011;15906;52.046;4.724;2023-02-28T09:23:32;11.60;;;7.53;;
27539;SDS011;15906;52.046;4.724;2023-02-28T09:25:57;11.97;;;7.40;;
27539;SDS011;15906;52.046;4.724;2023-02-28T09:28:23;8.60;;;4.97;;
27539;SDS011;15906;52.046;4.724;2023-02-28T09:30:50;7.37;;;5.00;;
27539;SDS011;15906;52.046;4.724;2023-02-28T09:33:17;9.67;;;4.97;;
27539;SDS011;15906;52.046;4.724;2023-02-28T09:35:46;8.27;;;4.57;;
27539;SDS011;15906;52.046;4.724;2023-02-28T09:38:12;8.70;;;5.63;;
27539;SDS011;15906;52.046;4.724;2023-02-28T09:40:51;8.50;;;5.80;;
27539;SDS011;15906;52.046;4.724;2023-02-28T09:43:20;9.27;;;5.80;;
27539;SDS011;15906;52.046;4.724;2023-02-28T09:45:50;11.43;;;6.47;;
27539;SDS011;15906;52.046;4.724;2023-02-28T09:48:25;7.97;;;6.20;;
27539;SDS011;15906;52.046;4.724;2023-02-28T09:50:59;9.33;;;5.43;;
27539;SDS011;15906;52.046;4.724;2023-02-28T09:53:33;9.53;;;5.80;;
27539;SDS011;15906;52.046;4.724;2023-02-28T10:01:17;8.70;;;6.03;;
27539;SDS011;15906;52.046;4.724;2023-02-28T10:06:50;10.33;;;5.97;;
27539;SDS011;15906;52.046;4.724;2023-02-28T10:09:22;10.17;;;6.57;;
27539;SDS011;15906;52.046;4.724;2023-02-28T10:11:57;9.67;;;6.47;;
27539;SDS011;15906;52.046;4.724;2023-02-28T10:14:29;10.53;;;6.37;;
27539;SDS011;15906;52.046;4.724;2023-02-28T10:16:59;11.67;;;6.90;;
27539;SDS011;15906;52.046;4.724;2023-02-28T10:22:15;11.10;;;7.33;;
27539;SDS011;15906;52.046;4.724;2023-02-28T10:24:51;9.03;;;6.80;;
27539;SDS011;15906;52.046;4.724;2023-02-28T10:27:21;11.80;;;7.33;;
27539;SDS011;15906;52.046;4.724;2023-02-28T10:29:53;15.80;;;7.50;;
27539;SDS011;15906;52.046;4.724;2023-02-28T10:32:22;10.37;;;6.33;;
27539;SDS011;15906;52.046;4.724;2023-02-28T10:37:26;8.40;;;6.00;;
27539;SDS011;15906;52.046;4.724;2023-02-28T10:39:52;7.43;;;5.10;;
27539;SDS011;15906;52.046;4.724;2023-02-28T10:42:22;8.40;;;5.00;;
27539;SDS011;15906;52.046;4.724;2023-02-28T10:45:04;9.30;;;5.03;;
27539;SDS011;15906;52.046;4.724;2023-02-28T10:47:30;4.80;;;4.27;;
27539;SDS011;15906;52.046;4.724;2023-02-28T10:49:58;5.47;;;3.57;;
27539;SDS011;15906;52.046;4.724;2023-02-28T10:52:33;6.47;;;4.20;;
27539;SDS011;15906;52.046;4.724;2023-02-28T10:58:01;3.90;;;3.13;;
27539;SDS011;15906;52.046;4.724;2023-02-28T11:00:31;4.47;;;3.20;;
27539;SDS011;15906;52.046;4.724;2023-02-28T11:02:59;3.70;;;3.30;;
27539;SDS011;15906;52.046;4.724;2023-02-28T11:05:29;4.97;;;3.15;;
27539;SDS011;15906;52.046;4.724;2023-02-28T11:08:06;4.65;;;3.10;;
27539;SDS011;15906;52.046;4.724;2023-02-28T11:10:43;4.80;;;2.85;;
27539;SDS011;15906;52.046;4.724;2023-02-28T11:13:19;3.22;;;2.85;;
27539;SDS011;15906;52.046;4.724;2023-02-28T11:15:51;4.78;;;2.92;;
27539;SDS011;15906;52.046;4.724;2023-02-28T11:18:27;4.68;;;2.60;;
27539;SDS011;15906;52.046;4.724;2023-02-28T11:20:56;2.70;;;2.50;;
27539;SDS011;15906;52.046;4.724;2023-02-28T11:23:25;3.05;;;2.38;;
27539;SDS011;15906;52.046;4.724;2023-02-28T11:25:52;3.47;;;3.03;;
27539;SDS011;15906;52.046;4.724;2023-02-28T11:30:59;3.63;;;2.47;;
27539;SDS011;15906;52.046;4.724;2023-02-28T11:38:46;2.75;;;2.50;;
27539;SDS011;15906;52.046;4.724;2023-02-28T11:43:58;4.80;;;3.23;;
27539;SDS011;15906;52.046;4.724;2023-02-28T11:46:33;5.05;;;2.45;;
27539;SDS011;15906;52.046;4.724;2023-02-28T11:51:47;4.20;;;2.90;;
27539;SDS011;15906;52.046;4.724;2023-02-28T11:54:35;4.82;;;2.80;;
27539;SDS011;15906;52.046;4.724;2023-02-28T12:03:13;3.92;;;2.17;;
27539;SDS011;15906;52.046;4.724;2023-02-28T12:06:13;3.90;;;2.45;;
27539;SDS011;15906;52.046;4.724;2023-02-28T12:09:00;2.88;;;2.20;;
27539;SDS011;15906;52.046;4.724;2023-02-28T12:11:52;2.65;;;2.10;;
27539;SDS011;15906;52.046;4.724;2023-02-28T12:17:32;3.05;;;2.42;;
27539;SDS011;15906;52.046;4.724;2023-02-28T12:25:52;2.85;;;2.55;;
27539;SDS011;15906;52.046;4.724;2023-02-28T12:28:28;3.60;;;2.50;;
27539;SDS011;15906;52.046;4.724;2023-02-28T12:31:10;3.17;;;2.03;;
27539;SDS011;15906;52.046;4.724;2023-02-28T12:33:43;4.90;;;2.60;;
27539;SDS011;15906;52.046;4.724;2023-02-28T12:36:13;3.20;;;2.63;;
27539;SDS011;15906;52.046;4.724;2023-02-28T12:41:19;3.58;;;2.80;;
27539;SDS011;15906;52.046;4.724;2023-02-28T12:44:07;3.00;;;2.70;;
27539;SDS011;15906;52.046;4.724;2023-02-28T12:46:43;3.38;;;2.33;;
27539;SDS011;15906;52.046;4.724;2023-02-28T12:52:01;5.22;;;2.88;;
27539;SDS011;15906;52.046;4.724;2023-02-28T12:54:30;3.90;;;2.35;;
27539;SDS011;15906;52.046;4.724;2023-02-28T12:59:57;2.95;;;2.25;;
27539;SDS011;15906;52.046;4.724;2023-02-28T13:10:55;6.13;;;2.80;;
27539;SDS011;15906;52.046;4.724;2023-02-28T13:13:22;5.45;;;2.90;;
27539;SDS011;15906;52.046;4.724;2023-02-28T13:15:57;2.40;;;2.20;;
27539;SDS011;15906;52.046;4.724;2023-02-28T13:18:46;4.75;;;2.55;;
27539;SDS011;15906;52.046;4.724;2023-02-28T13:21:28;4.50;;;2.50;;
27539;SDS011;15906;52.046;4.724;2023-02-28T13:34:27;2.72;;;2.53;;
27539;SDS011;15906;52.046;4.724;2023-02-28T13:45:20;3.08;;;2.50;;
27539;SDS011;15906;52.046;4.724;2023-02-28T13:47:36;3.50;;;2.50;;
27539;SDS011;15906;52.046;4.724;2023-02-28T13:50:28;4.80;;;2.10;;
27539;SDS011;15906;52.046;4.724;2023-02-28T13:58:37;3.10;;;2.08;;
27539;SDS011;15906;52.046;4.724;2023-02-28T14:01:30;2.40;;;2.20;;
27539;SDS011;15906;52.046;4.724;2023-02-28T14:07:26;3.03;;;2.10;;
27539;SDS011;15906;52.046;4.724;2023-02-28T14:10:06;3.25;;;2.13;;
27539;SDS011;15906;52.046;4.724;2023-02-28T14:15:47;4.63;;;2.33;;
27539;SDS011;15906;52.046;4.724;2023-02-28T14:21:14;2.80;;;2.50;;
27539;SDS011;15906;52.046;4.724;2023-02-28T14:24:03;3.28;;;2.30;;
27539;SDS011;15906;52.046;4.724;2023-02-28T14:37:28;3.85;;;2.10;;
27539;SDS011;15906;52.046;4.724;2023-02-28T14:39:57;3.10;;;2.15;;
27539;SDS011;15906;52.046;4.724;2023-02-28T14:42:33;4.53;;;2.45;;
27539;SDS011;15906;52.046;4.724;2023-02-28T14:45:00;2.10;;;1.90;;
27539;SDS011;15906;52.046;4.724;2023-02-28T14:47:33;2.70;;;2.20;;
27539;SDS011;15906;52.046;4.724;2023-02-28T14:50:00;2.40;;;2.15;;
27539;SDS011;15906;52.046;4.724;2023-02-28T14:52:29;3.50;;;2.58;;
27539;SDS011;15906;52.046;4.724;2023-02-28T14:54:58;3.75;;;2.17;;
27539;SDS011;15906;52.046;4.724;2023-02-28T14:57:31;3.17;;;1.98;;
27539;SDS011;15906;52.046;4.724;2023-02-28T15:02:45;3.50;;;2.42;;
27539;SDS011;15906;52.046;4.724;2023-02-28T15:07:41;4.85;;;2.60;;
27539;SDS011;15906;52.046;4.724;2023-02-28T15:10:18;3.00;;;2.08;;
27539;SDS011;15906;52.046;4.724;2023-02-28T15:12:57;4.18;;;2.47;;
27539;SDS011;15906;52.046;4.724;2023-02-28T15:15:27;3.63;;;2.65;;
27539;SDS011;15906;52.046;4.724;2023-02-28T15:17:54;3.70;;;2.53;;
27539;SDS011;15906;52.046;4.724;2023-02-28T15:20:22;3.80;;;2.80;;
27539;SDS011;15906;52.046;4.724;2023-02-28T15:22:49;3.45;;;2.63;;
27539;SDS011;15906;52.046;4.724;2023-02-28T15:25:19;3.65;;;2.70;;
27539;SDS011;15906;52.046;4.724;2023-02-28T15:27:47;3.50;;;2.63;;
27539;SDS011;15906;52.046;4.724;2023-02-28T15:30:17;4.88;;;3.45;;
27539;SDS011;15906;52.046;4.724;2023-02-28T15:33:01;4.45;;;3.45;;
27539;SDS011;15906;52.046;4.724;2023-02-28T15:35:31;5.80;;;3.30;;
27539;SDS011;15906;52.046;4.724;2023-02-28T15:45:48;5.13;;;3.25;;
27539;SDS011;15906;52.046;4.724;2023-02-28T15:48:20;4.80;;;3.75;;
27539;SDS011;15906;52.046;4.724;2023-02-28T15:50:56;5.15;;;3.65;;
27539;SDS011;15906;52.046;4.724;2023-02-28T15:53:28;6.05;;;3.83;;
27539;SDS011;15906;52.046;4.724;2023-02-28T15:56:01;6.72;;;4.68;;
27539;SDS011;15906;52.046;4.724;2023-02-28T15:58:32;5.40;;;3.47;;
27539;SDS011;15906;52.046;4.724;2023-02-28T16:01:00;6.07;;;3.90;;
27539;SDS011;15906;52.046;4.724;2023-02-28T16:03:37;5.78;;;3.88;;
27539;SDS011;15906;52.046;4.724;2023-02-28T16:06:12;9.05;;;3.88;;
27539;SDS011;15906;52.046;4.724;2023-02-28T16:08:51;3.90;;;3.50;;
27539;SDS011;15906;52.046;4.724;2023-02-28T16:11:18;4.22;;;3.42;;
27539;SDS011;15906;52.046;4.724;2023-02-28T16:13:45;4.28;;;3.58;;
27539;SDS011;15906;52.046;4.724;2023-02-28T16:16:17;5.07;;;3.63;;
27539;SDS011;15906;52.046;4.724;2023-02-28T16:18:44;4.03;;;3.47;;
27539;SDS011;15906;52.046;4.724;2023-02-28T16:21:10;4.88;;;3.75;;
27539;SDS011;15906;52.046;4.724;2023-02-28T16:23:36;7.00;;;3.90;;
27539;SDS011;15906;52.046;4.724;2023-02-28T16:26:02;5.13;;;4.30;;
27539;SDS011;15906;52.046;4.724;2023-02-28T16:28:29;5.18;;;3.95;;
27539;SDS011;15906;52.046;4.724;2023-02-28T16:30:59;9.55;;;4.68;;
27539;SDS011;15906;52.046;4.724;2023-02-28T16:33:25;5.33;;;4.50;;
27539;SDS011;15906;52.046;4.724;2023-02-28T16:35:51;7.85;;;4.18;;
27539;SDS011;15906;52.046;4.724;2023-02-28T16:38:17;6.03;;;4.25;;
27539;SDS011;15906;52.046;4.724;2023-02-28T16:40:43;7.13;;;4.27;;
27539;SDS011;15906;52.046;4.724;2023-02-28T16:43:13;6.80;;;4.23;;
27539;SDS011;15906;52.046;4.724;2023-02-28T16:45:42;8.90;;;4.75;;
27539;SDS011;15906;52.046;4.724;2023-02-28T16:48:10;7.90;;;4.35;;
27539;SDS011;15906;52.046;4.724;2023-02-28T16:50:38;5.60;;;4.10;;
27539;SDS011;15906;52.046;4.724;2023-02-28T16:53:03;7.00;;;4.53;;
27539;SDS011;15906;52.046;4.724;2023-02-28T16:55:29;7.53;;;4.63;;
27539;SDS011;15906;52.046;4.724;2023-02-28T16:57:55;10.50;;;5.43;;
27539;SDS011;15906;52.046;4.724;2023-02-28T17:00:23;6.17;;;4.00;;
27539;SDS011;15906;52.046;4.724;2023-02-28T17:02:50;5.93;;;3.97;;
27539;SDS011;15906;52.046;4.724;2023-02-28T17:05:16;6.87;;;4.30;;
27539;SDS011;15906;52.046;4.724;2023-02-28T17:07:43;6.37;;;4.63;;
27539;SDS011;15906;52.046;4.724;2023-02-28T17:10:20;9.47;;;4.97;;
27539;SDS011;15906;52.046;4.724;2023-02-28T17:12:47;8.17;;;5.03;;
27539;SDS011;15906;52.046;4.724;2023-02-28T17:15:14;9.43;;;4.80;;
27539;SDS011;15906;52.046;4.724;2023-02-28T17:17:41;5.47;;;4.37;;
27539;SDS011;15906;52.046;4.724;2023-02-28T17:20:11;6.47;;;4.60;;
27539;SDS011;15906;52.046;4.724;2023-02-28T17:22:41;6.97;;;4.53;;
27539;SDS011;15906;52.046;4.724;2023-02-28T17:25:08;6.53;;;4.33;;
27539;SDS011;15906;52.046;4.724;2023-02-28T17:27:34;6.30;;;4.37;;
27539;SDS011;15906;52.046;4.724;2023-02-28T17:30:00;7.83;;;5.10;;
27539;SDS011;15906;52.046;4.724;2023-02-28T17:32:27;5.77;;;4.17;;
27539;SDS011;15906;52.046;4.724;2023-02-28T17:34:53;6.37;;;4.30;;
27539;SDS011;15906;52.046;4.724;2023-02-28T17:37:18;6.83;;;4.90;;